sensor_id;sensor_type;location;lat;lon;timestamp;temperature;humidity
3562;DHT22;1795;52.074;4.754;2022-11-15T18:09:24;11.10;99.90
3562;DHT22;1795;52.074;4.754;2022-11-15T18:11:52;11.10;99.90
3562;DHT22;1795;52.074;4.754;2022-11-15T18:14:20;11.20;99.90
3562;DHT22;1795;52.074;4.754;2022-11-15T18:16:48;11.20;99.90
3562;DHT22;1795;52.074;4.754;2022-11-15T18:19:16;11.20;99.90
3562;DHT22;1795;52.074;4.754;2022-11-15T18:21:44;11.30;99.90
3562;DHT22;1795;52.074;4.754;2022-11-15T18:24:28;11.30;99.90
3562;DHT22;1795;52.074;4.754;2022-11-15T18:26:57;11.40;99.90
3562;DHT22;1795;52.074;4.754;2022-11-15T18:29:26;11.60;99.90
3562;DHT22;1795;52.074;4.754;2022-11-15T18:31:54;11.70;99.90
3562;DHT22;1795;52.074;4.754;2022-11-15T18:34:24;11.70;99.90
3562;DHT22;1795;52.074;4.754;2022-11-15T18:36:54;11.70;99.90
3562;DHT22;1795;52.074;4.754;2022-11-15T18:39:22;11.70;99.90
3562;DHT22;1795;52.074;4.754;2022-11-15T18:41:51;11.70;99.90
3562;DHT22;1795;52.074;4.754;2022-11-15T18:44:19;11.80;99.90
3562;DHT22;1795;52.074;4.754;2022-11-15T18:46:47;11.70;99.90
3562;DHT22;1795;52.074;4.754;2022-11-15T18:49:16;11.70;99.90
3562;DHT22;1795;52.074;4.754;2022-11-15T18:51:46;11.80;99.90
3562;DHT22;1795;52.074;4.754;2022-11-15T18:54:15;11.80;99.90
3562;DHT22;1795;52.074;4.754;2022-11-15T18:56:44;11.70;99.90
3562;DHT22;1795;52.074;4.754;2022-11-15T18:59:14;11.80;99.90
3562;DHT22;1795;52.074;4.754;2022-11-15T19:01:44;11.80;99.90
3562;DHT22;1795;52.074;4.754;2022-11-15T19:04:15;11.80;99.90
3562;DHT22;1795;52.074;4.754;2022-11-15T19:06:45;11.80;99.90
3562;DHT22;1795;52.074;4.754;2022-11-15T19:09:15;11.80;99.90
3562;DHT22;1795;52.074;4.754;2022-11-15T19:11:45;11.80;99.90
3562;DHT22;1795;52.074;4.754;2022-11-15T19:14:16;11.80;99.90
3562;DHT22;1795;52.074;4.754;2022-11-15T19:16:46;11.80;99.90
3562;DHT22;1795;52.074;4.754;2022-11-15T19:19:17;11.70;99.90
3562;DHT22;1795;52.074;4.754;2022-11-15T19:21:45;11.70;99.90
3562;DHT22;1795;52.074;4.754;2022-11-15T19:24:13;11.80;99.90
3562;DHT22;1795;52.074;4.754;2022-11-15T19:26:41;11.70;99.90
3562;DHT22;1795;52.074;4.754;2022-11-15T19:29:10;11.70;99.90
3562;DHT22;1795;52.074;4.754;2022-11-15T19:31:41;11.70;99.90
3562;DHT22;1795;52.074;4.754;2022-11-15T19:34:09;11.70;99.90
3562;DHT22;1795;52.074;4.754;2022-11-15T19:36:39;11.70;99.90
3562;DHT22;1795;52.074;4.754;2022-11-15T19:39:09;11.60;99.90
3562;DHT22;1795;52.074;4.754;2022-11-15T19:41:39;11.70;99.90
3562;DHT22;1795;52.074;4.754;2022-11-15T19:44:09;11.70;99.90
3562;DHT22;1795;52.074;4.754;2022-11-15T19:46:37;11.70;99.90
3562;DHT22;1795;52.074;4.754;2022-11-15T19:49:06;11.70;99.90
3562;DHT22;1795;52.074;4.754;2022-11-15T19:51:37;11.60;99.90
3562;DHT22;1795;52.074;4.754;2022-11-15T19:54:08;11.70;99.90
3562;DHT22;1795;52.074;4.754;2022-11-15T19:56:37;11.60;99.90
3562;DHT22;1795;52.074;4.754;2022-11-15T19:59:05;11.70;99.90
3562;DHT22;1795;52.074;4.754;2022-11-15T20:01:34;11.60;99.90
3562;DHT22;1795;52.074;4.754;2022-11-15T20:04:06;11.70;99.90
3562;DHT22;1795;52.074;4.754;2022-11-15T20:06:37;11.60;99.90
3562;DHT22;1795;52.074;4.754;2022-11-15T20:09:06;11.70;99.90
3562;DHT22;1795;52.074;4.754;2022-11-15T20:11:34;11.70;99.90
3562;DHT22;1795;52.074;4.754;2022-11-15T20:14:03;11.70;99.90
3562;DHT22;1795;52.074;4.754;2022-11-15T20:16:32;11.70;99.90
3562;DHT22;1795;52.074;4.754;2022-11-15T20:19:00;11.70;99.90
3562;DHT22;1795;52.074;4.754;2022-11-15T20:21:29;11.70;99.90
3562;DHT22;1795;52.074;4.754;2022-11-15T20:23:57;11.70;99.90
3562;DHT22;1795;52.074;4.754;2022-11-15T20:26:26;11.70;99.90
3562;DHT22;1795;52.074;4.754;2022-11-15T20:28:54;11.70;99.90
3562;DHT22;1795;52.074;4.754;2022-11-15T20:31:27;11.70;99.90
3562;DHT22;1795;52.074;4.754;2022-11-15T20:33:55;11.70;99.90
3562;DHT22;1795;52.074;4.754;2022-11-15T20:36:23;11.70;99.90
3562;DHT22;1795;52.074;4.754;2022-11-15T20:38:55;11.70;99.90
3562;DHT22;1795;52.074;4.754;2022-11-15T20:41:23;11.70;99.90
3562;DHT22;1795;52.074;4.754;2022-11-15T20:43:51;11.70;99.90
3562;DHT22;1795;52.074;4.754;2022-11-15T20:46:19;11.70;99.90
3562;DHT22;1795;52.074;4.754;2022-11-15T20:48:47;11.70;99.90
3562;DHT22;1795;52.074;4.754;2022-11-15T20:51:17;11.70;99.90
3562;DHT22;1795;52.074;4.754;2022-11-15T20:53:46;11.70;99.90
3562;DHT22;1795;52.074;4.754;2022-11-15T20:56:18;11.70;99.90
3562;DHT22;1795;52.074;4.754;2022-11-15T20:58:46;11.70;99.90
3562;DHT22;1795;52.074;4.754;2022-11-15T21:01:18;11.70;99.90
3562;DHT22;1795;52.074;4.754;2022-11-15T21:03:50;11.70;99.90
3562;DHT22;1795;52.074;4.754;2022-11-15T21:06:18;11.70;99.90
3562;DHT22;1795;52.074;4.754;2022-11-15T21:08:46;11.70;99.90
3562;DHT22;1795;52.074;4.754;2022-11-15T21:11:34;11.70;99.90
3562;DHT22;1795;52.074;4.754;2022-11-15T21:14:19;11.70;99.90
3562;DHT22;1795;52.074;4.754;2022-11-15T21:16:47;11.70;99.90
3562;DHT22;1795;52.074;4.754;2022-11-15T21:19:15;11.70;99.90
3562;DHT22;1795;52.074;4.754;2022-11-15T21:21:48;11.70;99.90
3562;DHT22;1795;52.074;4.754;2022-11-15T21:24:16;11.70;99.90
3562;DHT22;1795;52.074;4.754;2022-11-15T21:26:47;11.70;99.90
3562;DHT22;1795;52.074;4.754;2022-11-15T21:29:15;11.70;99.90
3562;DHT22;1795;52.074;4.754;2022-11-15T21:31:43;11.70;99.90
3562;DHT22;1795;52.074;4.754;2022-11-15T21:34:12;11.70;99.90
3562;DHT22;1795;52.074;4.754;2022-11-15T21:36:40;11.70;99.90
3562;DHT22;1795;52.074;4.754;2022-11-15T21:39:08;11.70;99.90
3562;DHT22;1795;52.074;4.754;2022-11-15T21:41:36;11.70;99.90
3562;DHT22;1795;52.074;4.754;2022-11-15T21:44:05;11.70;99.90
3562;DHT22;1795;52.074;4.754;2022-11-15T21:46:33;11.70;99.90
3562;DHT22;1795;52.074;4.754;2022-11-15T21:49:03;11.70;99.90
3562;DHT22;1795;52.074;4.754;2022-11-15T21:51:32;11.70;99.90
3562;DHT22;1795;52.074;4.754;2022-11-15T21:54:00;11.70;99.90
3562;DHT22;1795;52.074;4.754;2022-11-15T21:56:29;11.70;99.90
3562;DHT22;1795;52.074;4.754;2022-11-15T21:58:58;11.70;99.90
3562;DHT22;1795;52.074;4.754;2022-11-15T22:01:27;11.70;99.90
3562;DHT22;1795;52.074;4.754;2022-11-15T22:04:13;11.70;99.90
3562;DHT22;1795;52.074;4.754;2022-11-15T22:06:41;11.70;99.90
3562;DHT22;1795;52.074;4.754;2022-11-15T22:09:10;11.70;99.90
3562;DHT22;1795;52.074;4.754;2022-11-15T22:11:38;11.70;99.90
3562;DHT22;1795;52.074;4.754;2022-11-15T22:14:06;11.70;99.90
3562;DHT22;1795;52.074;4.754;2022-11-15T22:16:35;11.70;99.90
3562;DHT22;1795;52.074;4.754;2022-11-15T22:19:03;11.70;99.90
3562;DHT22;1795;52.074;4.754;2022-11-15T22:21:31;11.70;99.90
3562;DHT22;1795;52.074;4.754;2022-11-15T22:23:59;11.70;99.90
3562;DHT22;1795;52.074;4.754;2022-11-15T22:26:27;11.70;99.90
3562;DHT22;1795;52.074;4.754;2022-11-15T22:28:55;11.70;99.90
3562;DHT22;1795;52.074;4.754;2022-11-15T22:31:23;11.70;99.90
3562;DHT22;1795;52.074;4.754;2022-11-15T22:33:52;11.80;99.90
3562;DHT22;1795;52.074;4.754;2022-11-15T22:36:20;11.70;99.90
3562;DHT22;1795;52.074;4.754;2022-11-15T22:38:48;11.70;99.90
3562;DHT22;1795;52.074;4.754;2022-11-15T22:41:16;11.80;99.90
3562;DHT22;1795;52.074;4.754;2022-11-15T22:43:44;11.70;99.90
3562;DHT22;1795;52.074;4.754;2022-11-15T22:46:13;11.70;99.90
3562;DHT22;1795;52.074;4.754;2022-11-15T22:48:41;11.70;99.90
3562;DHT22;1795;52.074;4.754;2022-11-15T22:51:10;11.80;99.90
3562;DHT22;1795;52.074;4.754;2022-11-15T22:53:38;11.80;99.90
3562;DHT22;1795;52.074;4.754;2022-11-15T22:56:07;11.80;99.90
3562;DHT22;1795;52.074;4.754;2022-11-15T22:58:36;11.80;99.90
3562;DHT22;1795;52.074;4.754;2022-11-15T23:01:04;11.80;99.90
3562;DHT22;1795;52.074;4.754;2022-11-15T23:03:33;11.80;99.90
3562;DHT22;1795;52.074;4.754;2022-11-15T23:06:02;11.80;99.90
3562;DHT22;1795;52.074;4.754;2022-11-15T23:08:32;11.80;99.90
3562;DHT22;1795;52.074;4.754;2022-11-15T23:11:01;11.80;99.90
3562;DHT22;1795;52.074;4.754;2022-11-15T23:13:49;11.80;99.90
3562;DHT22;1795;52.074;4.754;2022-11-15T23:16:17;11.80;99.90
3562;DHT22;1795;52.074;4.754;2022-11-15T23:18:50;11.80;99.90
3562;DHT22;1795;52.074;4.754;2022-11-15T23:21:21;11.80;99.90
3562;DHT22;1795;52.074;4.754;2022-11-15T23:24:05;11.80;99.90
3562;DHT22;1795;52.074;4.754;2022-11-15T23:26:33;11.80;99.90
3562;DHT22;1795;52.074;4.754;2022-11-15T23:29:01;11.80;99.90
3562;DHT22;1795;52.074;4.754;2022-11-15T23:31:29;11.80;99.90
3562;DHT22;1795;52.074;4.754;2022-11-15T23:34:27;11.80;99.90
3562;DHT22;1795;52.074;4.754;2022-11-15T23:36:56;11.80;99.90
3562;DHT22;1795;52.074;4.754;2022-11-15T23:39:25;11.80;99.90
3562;DHT22;1795;52.074;4.754;2022-11-15T23:41:54;11.80;99.90
3562;DHT22;1795;52.074;4.754;2022-11-15T23:44:22;11.90;99.90
3562;DHT22;1795;52.074;4.754;2022-11-15T23:46:50;11.90;99.90
3562;DHT22;1795;52.074;4.754;2022-11-15T23:49:18;11.90;99.90
3562;DHT22;1795;52.074;4.754;2022-11-15T23:51:46;11.90;99.90
3562;DHT22;1795;52.074;4.754;2022-11-15T23:54:14;11.90;99.90
3562;DHT22;1795;52.074;4.754;2022-11-15T23:56:44;11.90;99.90
3562;DHT22;1795;52.074;4.754;2022-11-15T23:59:11;11.90;99.90
